الصفحة الرئيسية
METAR-TAF:

METAR-TAF

مطار :

سيماي, كازاخستان

دائرة عرض: 50-21-05N, خط طول: 080-14-04E, ارتفاع: 232 متر

مراقبة الطقس الحالي

تاريخ ووقت الإصدار 24 دقيقة قبل الساعة 01:00UTC
ريح 4 عقدة من الجنوب/الجنوب الشرقي, الاتجاه يتراوح بين الجنوب الشرقي و الغرب/الجنوب الغربي
درجة الحرارة -2°درجة مئوية
الرطوبة 80%
ضغط 1023 hPa
الرؤية 10 كم أو أكثر
الغيوم لا تقل 1500 م ولا وجود لمزنة ركامية السحاب الأسود

METAR: UASS 170100Z 15002MPS 130V240 CAVOK M02/M05 Q1023 NOSIG RMK QFE749/0998

زمن: 07:24 (01:24 UTC)

توقعات

تاريخ ووقت الإصدار 14ساعات و 24 دقيقة قبل الساعة 11:00UTC
التوقعات صالحة من16 الساعة 12 UTC إلى 16 الساعة 21 UTC
ريح 14 عقدة من الجنوب الغربي
الرؤية 10 كم أو أكثر
غيوم مفككة على ارتفاع 2000 قدم, مزنة ركامية.
غيوم مفككة على ارتفاع 10000 قدم

TAF: UASS 161100Z 1612/1621 23007MPS 9999 BKN020CB BKN100

أرصاد الطقس والتوقعات من أكثر من 4000 مطار (تقارير الطقس للمطار METAR والتنبؤ بالطقس بالمطارTAF).

المحطات المتاحة هي النقط الصفراء والحمراء على الخريطة.

حرك المؤشر فوق النقطة لمعرفة اسم المحطة.

ثم انقر لمعرفة أرصاد وتوقعات الطقس.

لتغيير الخارطة: اضغط على الأزرار الخضراء مع رمز الصليب الأسود للتكبير. على الزر الأخضر مع شرطة للتصغير، أو على الأسهم الخضراء للخرائط المجاورة.


METAR-TAF: